Time;durP1;ratioP1;P1;durP2;ratioP2;P2;SDS_P1;SDS_P2;PMS_P1;PMS_P2;Temp;Humidity;BMP_temperature;BMP_pressure;BME280_temperature;BME280_humidity;BME280_pressure;Samples;Min_cycle;Max_cycle;Signal;HPM_P1;HPM_P2
2021/11/27 00:00:59;;;;;;;1.60;1.50;;;4.60;99.90;;;;;;4993057;28;20172;-65
2021/11/27 00:03:26;;;;;;;1.40;1.30;;;4.60;99.90;;;;;;4992967;28;20601;-67
2021/11/27 00:05:53;;;;;;;1.98;1.25;;;4.50;99.90;;;;;;4993384;28;20630;-65
2021/11/27 00:08:20;;;;;;;1.15;1.15;;;4.50;99.90;;;;;;4992799;28;20176;-66
2021/11/27 00:10:51;;;;;;;1.95;1.85;;;4.50;99.90;;;;;;4993185;28;20188;-64
2021/11/27 00:13:18;;;;;;;1.73;1.45;;;4.50;99.90;;;;;;4977241;28;20786;-65
2021/11/27 00:15:47;;;;;;;1.95;1.27;;;4.50;99.90;;;;;;4977231;28;20568;-65
2021/11/27 00:18:15;;;;;;;2.28;1.33;;;4.50;99.90;;;;;;4977074;28;20176;-65
2021/11/27 00:20:47;;;;;;;2.03;1.83;;;4.50;99.90;;;;;;4975871;28;20182;-65
2021/11/27 00:23:13;;;;;;;1.80;1.70;;;4.50;99.90;;;;;;4977117;28;20192;-66
2021/11/27 00:25:40;;;;;;;1.83;1.73;;;4.50;99.90;;;;;;4976969;28;20280;-67
2021/11/27 00:28:06;;;;;;;1.05;0.95;;;4.50;99.90;;;;;;4976562;28;20407;-66
2021/11/27 00:30:34;;;;;;;0.87;0.83;;;4.50;99.90;;;;;;4977111;28;20169;-67
2021/11/27 00:33:00;;;;;;;1.98;1.88;;;4.50;99.90;;;;;;4975414;28;20262;-65
2021/11/27 00:35:25;;;;;;;1.43;1.33;;;4.40;99.90;;;;;;4976642;28;20184;-67
2021/11/27 00:37:55;;;;;;;2.00;1.23;;;4.30;99.90;;;;;;4975398;28;20183;-66
2021/11/27 00:40:21;;;;;;;1.02;0.93;;;4.30;99.90;;;;;;4976369;28;20172;-67
2021/11/27 00:42:47;;;;;;;1.88;1.70;;;4.30;99.90;;;;;;4976487;28;20607;-66
2021/11/27 00:45:16;;;;;;;1.30;1.30;;;4.30;99.90;;;;;;4976609;28;20578;-66
2021/11/27 00:47:45;;;;;;;1.30;1.20;;;4.20;99.90;;;;;;4976252;28;20172;-66
2021/11/27 00:50:13;;;;;;;2.10;1.88;;;4.20;99.90;;;;;;4976533;28;20631;-66
2021/11/27 00:52:39;;;;;;;3.17;2.95;;;4.10;99.90;;;;;;4975065;28;20543;-66
2021/11/27 00:55:06;;;;;;;2.92;2.58;;;4.20;99.90;;;;;;4979485;28;20444;-65
2021/11/27 00:57:32;;;;;;;1.42;1.33;;;4.20;99.90;;;;;;4995401;28;20200;-66
2021/11/27 00:59:58;;;;;;;2.23;1.27;;;4.30;99.90;;;;;;4995979;28;20753;-65
2021/11/27 01:02:24;;;;;;;0.90;0.90;;;4.30;99.90;;;;;;4995660;28;20410;-65
2021/11/27 01:04:50;;;;;;;1.73;1.35;;;4.40;99.90;;;;;;4995391;28;20242;-65
2021/11/27 01:07:16;;;;;;;1.00;1.00;;;4.40;99.90;;;;;;4994915;28;20218;-66
2021/11/27 01:09:42;;;;;;;2.00;1.27;;;4.50;99.90;;;;;;4995413;28;20167;-65
2021/11/27 01:12:08;;;;;;;1.73;1.63;;;4.50;99.90;;;;;;4995215;28;20413;-66
2021/11/27 01:14:35;;;;;;;1.67;1.33;;;4.60;99.90;;;;;;4995204;28;20434;-66
2021/11/27 01:17:05;;;;;;;1.10;1.00;;;4.60;99.90;;;;;;4993796;28;20529;-66
2021/11/27 01:19:33;;;;;;;1.42;1.33;;;4.60;99.90;;;;;;4994149;28;20544;-65
2021/11/27 01:22:11;;;;;;;1.48;1.48;;;4.70;99.90;;;;;;4980012;28;20180;-65
2021/11/27 01:24:37;;;;;;;1.25;1.15;;;4.70;99.90;;;;;;4974603;28;20214;-66
2021/11/27 01:27:03;;;;;;;1.23;1.13;;;4.70;99.90;;;;;;4975522;28;20175;-66
2021/11/27 01:29:29;;;;;;;1.13;1.10;;;4.80;99.90;;;;;;4975759;28;20172;-66
2021/11/27 01:31:56;;;;;;;1.60;1.40;;;4.80;99.90;;;;;;4976033;28;20378;-66
2021/11/27 01:34:21;;;;;;;3.22;1.55;;;4.70;99.90;;;;;;4975472;28;20246;-67
2021/11/27 01:36:47;;;;;;;1.10;1.10;;;4.80;99.90;;;;;;4989758;28;20546;-67
2021/11/27 01:39:13;;;;;;;1.70;1.60;;;4.70;99.90;;;;;;4994841;28;20182;-66
2021/11/27 01:41:40;;;;;;;1.87;1.80;;;4.70;99.90;;;;;;4994735;28;20175;-66
2021/11/27 01:44:06;;;;;;;2.75;1.73;;;4.60;99.90;;;;;;4994294;28;20505;-66
2021/11/27 01:46:33;;;;;;;1.10;1.10;;;4.60;99.90;;;;;;4994273;28;20172;-66
2021/11/27 01:48:59;;;;;;;1.75;1.65;;;4.50;99.90;;;;;;4994866;28;20167;-66
2021/11/27 01:51:25;;;;;;;1.50;1.00;;;4.50;99.90;;;;;;4980013;28;20212;-66
2021/11/27 01:53:58;;;;;;;2.17;1.97;;;4.50;99.90;;;;;;4976890;28;20651;-66
2021/11/27 01:56:29;;;;;;;2.28;2.08;;;4.40;99.90;;;;;;4994440;28;20538;-64
2021/11/27 01:58:55;;;;;;;1.80;1.50;;;4.40;99.90;;;;;;4994632;28;20168;-65
2021/11/27 02:01:25;;;;;;;5.07;1.73;;;4.40;99.90;;;;;;4994750;28;20586;-65
2021/11/27 02:03:51;;;;;;;2.42;1.73;;;4.50;99.90;;;;;;4994497;28;20207;-65
2021/11/27 02:06:19;;;;;;;1.92;1.80;;;4.50;99.90;;;;;;4992796;28;20182;-67
2021/11/27 02:08:47;;;;;;;1.23;1.05;;;4.50;99.90;;;;;;4994702;28;20183;-66
2021/11/27 02:11:16;;;;;;;2.45;2.20;;;4.50;99.90;;;;;;4994776;28;20159;-66
2021/11/27 02:13:41;;;;;;;0.95;0.85;;;4.60;99.90;;;;;;4994912;28;20673;-66
2021/11/27 02:16:08;;;;;;;2.40;2.20;;;4.60;99.90;;;;;;4995746;28;20214;-66
2021/11/27 02:18:33;;;;;;;1.05;1.05;;;4.50;99.90;;;;;;4994547;28;20201;-66
2021/11/27 02:21:03;;;;;;;1.50;1.40;;;4.60;99.90;;;;;;4981444;28;20629;-66
2021/11/27 02:23:31;;;;;;;1.98;1.58;;;4.60;99.90;;;;;;4975548;28;20212;-64
2021/11/27 02:25:59;;;;;;;2.30;1.88;;;4.60;99.90;;;;;;4975750;28;20169;-65
2021/11/27 02:28:26;;;;;;;1.50;1.40;;;4.70;99.90;;;;;;4976339;28;20235;-66
2021/11/27 02:30:52;;;;;;;2.78;1.58;;;4.60;99.90;;;;;;4976580;28;20247;-67
2021/11/27 02:33:18;;;;;;;1.57;1.47;;;4.60;99.90;;;;;;4974746;28;20197;-67
2021/11/27 02:35:44;;;;;;;2.47;2.27;;;4.60;99.90;;;;;;4988575;28;20187;-67
2021/11/27 02:38:10;;;;;;;3.03;1.83;;;4.70;99.90;;;;;;4993701;28;20176;-67
2021/11/27 02:40:38;;;;;;;2.00;1.17;;;4.60;99.90;;;;;;4994213;28;20172;-65
2021/11/27 02:43:04;;;;;;;1.98;1.88;;;4.60;99.90;;;;;;4994165;28;20183;-66
2021/11/27 02:45:30;;;;;;;1.60;1.50;;;4.60;99.90;;;;;;4993781;28;20208;-66
2021/11/27 02:47:55;;;;;;;3.30;1.83;;;4.60;99.90;;;;;;4993656;28;20180;-67
2021/11/27 02:50:21;;;;;;;1.90;1.47;;;4.50;99.90;;;;;;4980002;28;20184;-67
2021/11/27 02:52:47;;;;;;;1.87;1.77;;;4.60;99.90;;;;;;4974489;28;20192;-67
2021/11/27 02:55:13;;;;;;;2.70;2.50;;;4.60;99.90;;;;;;4974590;28;20223;-66
2021/11/27 02:57:39;;;;;;;0.93;0.93;;;4.60;99.90;;;;;;4974222;28;20172;-68
2021/11/27 03:00:08;;;;;;;2.55;2.42;;;4.60;99.90;;;;;;4974657;28;20172;-66
2021/11/27 03:02:35;;;;;;;1.58;1.50;;;4.60;99.90;;;;;;4983945;28;20183;-67
2021/11/27 03:05:02;;;;;;;2.70;1.58;;;4.70;99.90;;;;;;4992703;28;20207;-66
2021/11/27 03:07:27;;;;;;;1.63;1.52;;;4.70;99.90;;;;;;4993506;28;20172;-67
2021/11/27 03:09:53;;;;;;;1.90;1.80;;;4.70;99.90;;;;;;4994142;28;20165;-67
2021/11/27 03:12:19;;;;;;;2.37;2.27;;;4.70;99.90;;;;;;4993763;28;20167;-66
2021/11/27 03:14:45;;;;;;;1.15;0.90;;;4.70;99.90;;;;;;4993904;28;20618;-66
2021/11/27 03:17:11;;;;;;;2.77;2.40;;;4.70;99.90;;;;;;4983738;28;20185;-68
2021/11/27 03:19:39;;;;;;;2.88;2.03;;;4.70;99.90;;;;;;4974326;28;20251;-67
2021/11/27 03:22:05;;;;;;;2.53;2.38;;;4.80;99.90;;;;;;4974515;28;20180;-67
2021/11/27 03:24:31;;;;;;;1.70;1.60;;;4.80;99.90;;;;;;4974067;28;20741;-67
2021/11/27 03:26:57;;;;;;;1.67;1.40;;;4.80;99.90;;;;;;4985139;28;20314;-66
2021/11/27 03:29:23;;;;;;;1.75;1.65;;;4.80;99.90;;;;;;4993249;28;20473;-67
2021/11/27 03:31:54;;;;;;;2.00;1.73;;;4.80;99.90;;;;;;4993667;28;20678;-66
2021/11/27 03:34:19;;;;;;;1.30;1.30;;;4.80;99.90;;;;;;4993807;28;20196;-67
2021/11/27 03:36:45;;;;;;;2.00;1.63;;;4.80;99.90;;;;;;4993098;28;20293;-66
2021/11/27 03:39:13;;;;;;;1.88;1.35;;;4.80;99.90;;;;;;4993509;28;20480;-66
2021/11/27 03:41:39;;;;;;;4.57;1.98;;;4.80;99.90;;;;;;4978046;28;20172;-65
2021/11/27 03:44:05;;;;;;;3.00;1.73;;;4.80;99.90;;;;;;4976181;28;20940;-66
2021/11/27 03:46:30;;;;;;;1.57;1.47;;;4.90;99.90;;;;;;4977562;28;20635;-65
2021/11/27 03:48:56;;;;;;;0.77;0.77;;;4.90;99.90;;;;;;4977901;28;20415;-65
2021/11/27 03:51:26;;;;;;;1.77;1.67;;;4.80;99.90;;;;;;4977860;28;20172;-66
2021/11/27 03:53:52;;;;;;;1.98;1.10;;;4.90;99.90;;;;;;4977463;28;20192;-66
2021/11/27 03:56:26;;;;;;;1.55;1.45;;;4.90;99.90;;;;;;4977249;28;20184;-66
2021/11/27 03:58:53;;;;;;;1.27;1.17;;;4.90;99.90;;;;;;4976581;28;20183;-68
2021/11/27 04:01:21;;;;;;;1.98;1.65;;;4.80;99.90;;;;;;4977670;28;20247;-68
2021/11/27 04:03:48;;;;;;;1.52;1.42;;;4.80;99.90;;;;;;4977131;28;20242;-65
2021/11/27 04:06:14;;;;;;;1.40;1.25;;;4.70;99.90;;;;;;4989472;28;20719;-66
2021/11/27 04:08:40;;;;;;;0.93;0.80;;;4.70;99.90;;;;;;4996489;28;20163;-66
2021/11/27 04:11:06;;;;;;;0.83;0.83;;;4.70;99.90;;;;;;4997007;28;20179;-66
2021/11/27 04:13:33;;;;;;;0.70;0.70;;;4.70;99.90;;;;;;4996645;28;20202;-66
2021/11/27 04:15:59;;;;;;;1.67;1.27;;;4.60;99.90;;;;;;4996867;28;20250;-66
2021/11/27 04:18:25;;;;;;;1.30;1.30;;;4.60;99.90;;;;;;4996041;28;20222;-65
2021/11/27 04:20:51;;;;;;;0.83;0.77;;;4.60;99.90;;;;;;4995011;28;20426;-67
2021/11/27 04:23:18;;;;;;;2.20;1.02;;;4.60;99.90;;;;;;4996146;28;20513;-66
2021/11/27 04:25:44;;;;;;;0.90;0.90;;;4.60;99.90;;;;;;4996382;28;20183;-66
2021/11/27 04:28:11;;;;;;;0.60;0.60;;;4.50;99.90;;;;;;4996186;28;20172;-65
2021/11/27 04:30:36;;;;;;;2.17;0.75;;;4.60;99.90;;;;;;4980251;28;20471;-66
2021/11/27 04:33:03;;;;;;;1.23;1.17;;;4.50;99.90;;;;;;4975350;28;20610;-66
2021/11/27 04:35:31;;;;;;;1.52;1.20;;;4.60;99.90;;;;;;4976841;28;20504;-65
2021/11/27 04:37:57;;;;;;;1.30;1.30;;;4.60;99.90;;;;;;4976666;28;20292;-66
2021/11/27 04:40:24;;;;;;;1.30;1.20;;;4.60;99.90;;;;;;4977032;28;20611;-66
2021/11/27 04:42:50;;;;;;;1.20;1.10;;;4.60;99.90;;;;;;4976875;28;20234;-66
2021/11/27 04:45:19;;;;;;;0.80;0.80;;;4.70;99.90;;;;;;4976628;28;20231;-67
2021/11/27 04:47:44;;;;;;;0.80;0.50;;;4.70;99.90;;;;;;4976199;28;20184;-67
2021/11/27 04:50:11;;;;;;;0.80;0.80;;;4.70;99.90;;;;;;4976695;28;20176;-66
2021/11/27 04:52:37;;;;;;;0.75;0.75;;;4.70;99.90;;;;;;4976510;28;20407;-66
2021/11/27 04:55:05;;;;;;;1.27;1.13;;;4.70;99.90;;;;;;4975989;28;20168;-66
2021/11/27 04:57:31;;;;;;;0.50;0.50;;;4.70;99.90;;;;;;4976041;28;20436;-65
2021/11/27 04:59:57;;;;;;;1.13;0.87;;;4.70;99.90;;;;;;4990949;28;20180;-65
2021/11/27 05:02:23;;;;;;;1.20;1.10;;;4.80;99.90;;;;;;4995839;28;20414;-65
2021/11/27 05:04:48;;;;;;;1.07;0.97;;;4.80;99.90;;;;;;4994284;28;20215;-65
2021/11/27 05:07:14;;;;;;;0.97;0.90;;;4.80;99.90;;;;;;4994187;28;20179;-65
2021/11/27 05:09:40;;;;;;;0.60;0.60;;;4.80;99.90;;;;;;4995621;28;20186;-66
2021/11/27 05:12:06;;;;;;;0.50;0.50;;;4.80;99.90;;;;;;4994453;28;20638;-66
2021/11/27 05:14:32;;;;;;;0.88;0.60;;;4.80;99.90;;;;;;4994787;28;20200;-66
2021/11/27 05:16:57;;;;;;;2.43;1.70;;;4.80;99.90;;;;;;4994693;28;20186;-66
2021/11/27 05:19:23;;;;;;;0.60;0.60;;;4.90;99.90;;;;;;4995420;28;20233;-66
2021/11/27 05:21:49;;;;;;;0.70;0.70;;;4.90;99.90;;;;;;4995338;28;20175;-66
2021/11/27 05:24:14;;;;;;;1.00;0.87;;;4.90;99.90;;;;;;4995197;28;20708;-66
2021/11/27 05:26:40;;;;;;;2.20;1.13;;;4.90;99.90;;;;;;4995212;28;20178;-66
2021/11/27 05:29:06;;;;;;;1.60;1.10;;;4.90;99.90;;;;;;4982998;28;20235;-65
2021/11/27 05:31:31;;;;;;;0.60;0.60;;;4.90;99.90;;;;;;4975803;28;20584;-66
2021/11/27 05:36:34;;;;;;;0.50;0.50;;;4.90;99.90;;;;;;4975643;28;20223;-66
2021/11/27 05:39:00;;;;;;;0.77;0.77;;;4.90;99.90;;;;;;4975843;28;20179;-65
2021/11/27 05:41:29;;;;;;;0.63;0.63;;;4.90;99.90;;;;;;4975796;28;20539;-66
2021/11/27 05:43:56;;;;;;;0.73;0.70;;;4.90;99.90;;;;;;4975384;28;20625;-66
2021/11/27 05:46:22;;;;;;;0.82;0.50;;;4.90;99.90;;;;;;4975267;28;20171;-66
2021/11/27 05:48:48;;;;;;;0.60;0.60;;;4.90;99.90;;;;;;4975670;28;20177;-66
2021/11/27 05:51:14;;;;;;;0.87;0.80;;;4.90;99.90;;;;;;4975631;28;20172;-66
2021/11/27 05:53:40;;;;;;;0.70;0.70;;;4.90;99.90;;;;;;4975341;28;20615;-65
2021/11/27 05:56:07;;;;;;;1.83;1.30;;;4.90;99.90;;;;;;4975520;28;20430;-65
2021/11/27 05:58:32;;;;;;;2.15;1.00;;;4.90;99.90;;;;;;4986288;28;20184;-65
2021/11/27 06:01:06;;;;;;;1.13;1.07;;;4.90;99.90;;;;;;4975396;28;20183;-65
2021/11/27 06:03:32;;;;;;;0.68;0.68;;;4.80;99.90;;;;;;4975223;28;20262;-66
2021/11/27 06:05:58;;;;;;;0.52;0.50;;;4.90;99.90;;;;;;4975244;28;20227;-67
2021/11/27 06:08:24;;;;;;;0.93;0.60;;;4.90;99.90;;;;;;4974153;28;20175;-65
2021/11/27 06:10:50;;;;;;;0.53;0.50;;;4.90;99.90;;;;;;4975126;28;20180;-66
2021/11/27 06:13:16;;;;;;;1.30;1.27;;;4.90;99.90;;;;;;4986241;28;20203;-66
2021/11/27 06:15:42;;;;;;;0.50;0.40;;;4.80;99.90;;;;;;4994882;28;20169;-66
2021/11/27 06:18:08;;;;;;;0.87;0.67;;;4.80;99.90;;;;;;4994103;28;20175;-65
2021/11/27 06:20:33;;;;;;;1.98;0.65;;;4.80;99.90;;;;;;4994295;28;20402;-65
2021/11/27 06:22:59;;;;;;;0.60;0.60;;;4.80;99.90;;;;;;4994408;28;20250;-65
2021/11/27 06:25:26;;;;;;;0.87;0.87;;;4.80;99.90;;;;;;4994354;28;20298;-66
2021/11/27 06:27:52;;;;;;;0.50;0.50;;;4.80;99.90;;;;;;4985683;28;20177;-66
2021/11/27 06:30:18;;;;;;;0.77;0.77;;;4.80;99.90;;;;;;4974405;28;20316;-66
2021/11/27 06:32:44;;;;;;;0.90;0.70;;;4.80;99.90;;;;;;4974707;28;20220;-67
2021/11/27 06:35:11;;;;;;;0.40;0.40;;;4.80;99.90;;;;;;4973541;28;20408;-66
2021/11/27 06:37:37;;;;;;;0.40;0.40;;;4.80;99.90;;;;;;4974393;28;20419;-65
2021/11/27 06:40:04;;;;;;;0.90;0.90;;;4.80;99.90;;;;;;4974838;28;20176;-66
2021/11/27 06:42:30;;;;;;;1.88;0.88;;;4.80;99.90;;;;;;4992330;28;20175;-66
2021/11/27 06:44:55;;;;;;;2.00;1.07;;;4.80;99.90;;;;;;4994003;28;20206;-66
2021/11/27 06:47:23;;;;;;;0.70;0.63;;;4.80;99.90;;;;;;4993258;28;20184;-66
2021/11/27 06:49:50;;;;;;;1.67;1.58;;;4.80;99.90;;;;;;4994113;28;20171;-66
2021/11/27 06:52:16;;;;;;;0.65;0.65;;;4.80;99.90;;;;;;4994085;28;20168;-65
2021/11/27 06:54:42;;;;;;;0.55;0.55;;;4.80;99.90;;;;;;4993957;28;20191;-65
2021/11/27 06:57:08;;;;;;;1.57;0.97;;;4.80;99.90;;;;;;4993576;28;20534;-66
2021/11/27 06:59:35;;;;;;;1.02;0.60;;;4.80;99.90;;;;;;4993936;28;20412;-66
2021/11/27 07:02:01;;;;;;;0.50;0.50;;;4.70;99.90;;;;;;4976491;28;20176;-66
2021/11/27 07:04:27;;;;;;;0.55;0.55;;;4.80;99.90;;;;;;4974161;28;20214;-66
2021/11/27 07:06:53;;;;;;;0.70;0.70;;;4.70;99.90;;;;;;4974157;28;20175;-66
2021/11/27 07:09:19;;;;;;;0.67;0.60;;;4.80;99.90;;;;;;4974724;28;20191;-66
2021/11/27 07:11:45;;;;;;;0.60;0.60;;;4.80;99.90;;;;;;4974333;28;20407;-66
2021/11/27 07:14:11;;;;;;;0.77;0.77;;;4.70;99.90;;;;;;4974417;28;20419;-66
2021/11/27 07:16:37;;;;;;;0.40;0.40;;;4.80;99.90;;;;;;4973941;28;20262;-66
2021/11/27 07:19:03;;;;;;;0.87;0.87;;;4.80;99.90;;;;;;4976681;28;20255;-66
2021/11/27 07:21:29;;;;;;;5.70;3.20;;;4.80;99.90;;;;;;4978151;28;20890;-66
2021/11/27 07:23:54;;;;;;;1.80;1.03;;;4.80;99.90;;;;;;4978110;28;20291;-65
2021/11/27 07:26:21;;;;;;;1.90;1.10;;;4.80;99.90;;;;;;4978591;28;20539;-64
2021/11/27 07:28:46;;;;;;;1.40;1.08;;;4.80;99.90;;;;;;4958684;28;20571;-66
2021/11/27 07:31:12;;;;;;;0.70;0.70;;;4.90;99.90;;;;;;4971474;28;20641;-66
2021/11/27 07:33:38;;;;;;;0.50;0.50;;;4.90;99.90;;;;;;4997543;28;20191;-66
2021/11/27 07:36:05;;;;;;;0.80;0.77;;;4.90;99.90;;;;;;4997571;28;20172;-66
2021/11/27 07:38:31;;;;;;;0.70;0.70;;;4.80;99.90;;;;;;4996946;28;20175;-66
2021/11/27 07:40:58;;;;;;;0.80;0.80;;;4.80;99.90;;;;;;4997641;28;20182;-66
2021/11/27 07:43:24;;;;;;;1.20;1.10;;;4.90;99.90;;;;;;4990515;28;20189;-66
2021/11/27 07:45:49;;;;;;;0.83;0.77;;;4.90;99.90;;;;;;4977969;28;20555;-66
2021/11/27 07:48:15;;;;;;;1.10;0.90;;;4.90;99.90;;;;;;4977378;28;20438;-66
2021/11/27 07:50:41;;;;;;;0.60;0.60;;;4.90;99.90;;;;;;4977781;28;20403;-66
2021/11/27 07:53:07;;;;;;;0.60;0.60;;;5.00;99.90;;;;;;4977485;28;20212;-66
2021/11/27 07:55:33;;;;;;;1.27;0.90;;;5.00;99.90;;;;;;4977485;28;20180;-66
2021/11/27 07:57:59;;;;;;;0.80;0.80;;;5.00;99.90;;;;;;4982618;28;20414;-66
2021/11/27 08:00:24;;;;;;;0.73;0.67;;;5.00;99.90;;;;;;4996990;28;20198;-66
2021/11/27 08:02:50;;;;;;;0.40;0.40;;;5.00;99.90;;;;;;4996447;28;20692;-66
2021/11/27 08:05:16;;;;;;;0.60;0.60;;;5.10;99.90;;;;;;4995457;28;20466;-66
2021/11/27 08:07:41;;;;;;;0.80;0.80;;;5.10;99.90;;;;;;4995851;28;20607;-68
2021/11/27 08:10:09;;;;;;;0.70;0.70;;;5.10;99.90;;;;;;4996560;28;20522;-66
2021/11/27 08:12:35;;;;;;;0.50;0.50;;;5.10;99.90;;;;;;4996746;28;20171;-66
2021/11/27 08:15:02;;;;;;;0.50;0.50;;;5.10;99.90;;;;;;4986461;28;20176;-69
2021/11/27 08:17:28;;;;;;;0.60;0.60;;;5.20;99.90;;;;;;4976574;28;20418;-67
2021/11/27 08:19:54;;;;;;;1.40;0.50;;;5.20;99.90;;;;;;4977117;28;20168;-67
2021/11/27 08:22:20;;;;;;;0.87;0.87;;;5.20;99.90;;;;;;4991840;28;20418;-66
2021/11/27 08:24:46;;;;;;;0.90;0.90;;;5.30;99.90;;;;;;4976678;28;20246;-66
2021/11/27 08:27:12;;;;;;;0.60;0.60;;;5.40;99.90;;;;;;4976402;28;20175;-68
2021/11/27 08:29:38;;;;;;;1.13;0.97;;;5.40;99.90;;;;;;4975920;28;20635;-69
2021/11/27 08:32:04;;;;;;;0.80;0.80;;;5.50;99.90;;;;;;4976774;28;20255;-66
2021/11/27 08:34:30;;;;;;;0.55;0.55;;;5.40;99.90;;;;;;4983577;28;20208;-65
2021/11/27 08:36:55;;;;;;;0.60;0.60;;;5.40;99.90;;;;;;4995665;28;20617;-63
2021/11/27 08:39:21;;;;;;;0.60;0.60;;;5.50;99.90;;;;;;4996251;28;20172;-67
2021/11/27 08:41:47;;;;;;;1.33;0.97;;;5.50;99.90;;;;;;4994758;28;20187;-68
2021/11/27 08:44:13;;;;;;;0.90;0.90;;;5.60;99.90;;;;;;4995455;28;20309;-66
2021/11/27 08:46:40;;;;;;;0.60;0.60;;;5.70;99.90;;;;;;4995744;28;20374;-66
2021/11/27 08:49:06;;;;;;;0.77;0.40;;;5.90;99.90;;;;;;4988717;28;20427;-66
2021/11/27 08:51:32;;;;;;;1.48;1.00;;;6.10;99.90;;;;;;4991186;28;20174;-68
2021/11/27 08:53:57;;;;;;;1.23;0.87;;;6.20;99.90;;;;;;4975575;28;20191;-70
2021/11/27 08:56:23;;;;;;;0.60;0.60;;;6.40;99.90;;;;;;4974130;28;20185;-70
2021/11/27 08:58:49;;;;;;;2.83;1.17;;;6.50;99.90;;;;;;4977068;28;20225;-67
2021/11/27 09:01:15;;;;;;;0.60;0.60;;;6.70;99.90;;;;;;4995209;28;20185;-65
2021/11/27 09:03:43;;;;;;;0.70;0.70;;;6.70;99.90;;;;;;4995488;28;20969;-66
2021/11/27 09:06:09;;;;;;;0.73;0.70;;;6.70;99.90;;;;;;4994368;28;20242;-67
2021/11/27 09:08:39;;;;;;;0.50;0.43;;;6.70;99.90;;;;;;4995433;28;20261;-66
2021/11/27 09:11:07;;;;;;;0.70;0.70;;;6.70;99.90;;;;;;4995545;28;20528;-68
2021/11/27 09:13:34;;;;;;;2.70;1.45;;;6.70;99.90;;;;;;4995045;28;20248;-68
2021/11/27 09:15:59;;;;;;;1.27;0.50;;;6.70;99.90;;;;;;4995513;28;20175;-71
2021/11/27 09:18:28;;;;;;;1.10;1.00;;;6.60;99.90;;;;;;4994897;28;20177;-68
2021/11/27 09:20:53;;;;;;;1.15;0.93;;;6.50;99.90;;;;;;4995276;28;20175;-68
2021/11/27 09:23:19;;;;;;;1.17;0.63;;;6.50;99.90;;;;;;4992048;28;20526;-71
2021/11/27 09:25:45;;;;;;;0.60;0.60;;;6.50;99.90;;;;;;4995134;28;20205;-71
2021/11/27 09:28:11;;;;;;;0.40;0.40;;;6.40;99.90;;;;;;4994042;28;20660;-68
2021/11/27 09:30:36;;;;;;;1.00;0.60;;;6.50;99.90;;;;;;4978493;28;20796;-68
2021/11/27 09:33:02;;;;;;;0.70;0.60;;;6.50;99.90;;;;;;4983841;28;20179;-69
2021/11/27 09:35:28;;;;;;;0.80;0.50;;;6.60;99.90;;;;;;4993295;28;20621;-72
2021/11/27 09:37:53;;;;;;;0.73;0.73;;;6.70;99.90;;;;;;4979648;28;20176;-69
2021/11/27 09:40:20;;;;;;;1.07;0.83;;;6.80;99.90;;;;;;4975319;28;20176;-69
2021/11/27 09:42:50;;;;;;;6.35;0.73;;;6.80;99.90;;;;;;4975207;28;20578;-69
2021/11/27 09:45:24;;;;;;;2.47;1.35;;;6.80;99.90;;;;;;4975268;28;20223;-69
2021/11/27 09:47:50;;;;;;;2.35;1.00;;;7.00;99.90;;;;;;4974941;28;20697;-69
2021/11/27 09:50:16;;;;;;;0.95;0.95;;;7.00;99.90;;;;;;4990612;28;20177;-69
2021/11/27 09:52:45;;;;;;;0.80;0.80;;;7.10;99.90;;;;;;4993615;28;20696;-69
2021/11/27 09:55:12;;;;;;;1.40;1.30;;;7.20;99.90;;;;;;4993321;28;20174;-70
2021/11/27 09:57:38;;;;;;;0.40;0.40;;;7.20;99.90;;;;;;4991743;28;20170;-70
2021/11/27 10:00:04;;;;;;;1.90;1.20;;;7.30;99.90;;;;;;4992020;28;20189;-69
2021/11/27 10:02:31;;;;;;;1.15;1.15;;;7.30;99.90;;;;;;4992165;28;20183;-69
2021/11/27 10:04:58;;;;;;;0.52;0.40;;;7.40;99.90;;;;;;4992832;28;20199;-70
2021/11/27 10:07:25;;;;;;;1.85;0.93;;;7.30;99.90;;;;;;4993331;28;20195;-70
2021/11/27 10:09:51;;;;;;;6.43;1.23;;;7.30;99.90;;;;;;4994201;28;20170;-70
2021/11/27 10:12:19;;;;;;;0.73;0.65;;;7.30;99.90;;;;;;4994375;28;20175;-68
2021/11/27 10:14:45;;;;;;;0.47;0.47;;;7.40;99.90;;;;;;4994189;28;20569;-69
2021/11/27 10:17:18;;;;;;;0.50;0.50;;;7.50;99.90;;;;;;4994021;28;20178;-69
2021/11/27 10:19:46;;;;;;;0.55;0.55;;;7.60;99.90;;;;;;4994408;28;20175;-70
2021/11/27 10:22:16;;;;;;;0.50;0.50;;;7.90;99.90;;;;;;4994208;28;20495;-70
2021/11/27 10:24:46;;;;;;;0.57;0.57;;;8.20;99.90;;;;;;4993907;28;20210;-69
2021/11/27 10:27:25;;;;;;;1.00;0.73;;;8.60;99.90;;;;;;4954992;28;20184;-70
2021/11/27 10:30:07;;;;;;;0.98;0.70;;;8.80;99.90;;;;;;4955258;28;20165;-70
2021/11/27 10:32:42;;;;;;;0.50;0.50;;;8.90;99.90;;;;;;4955489;28;20173;-68
2021/11/27 10:35:11;;;;;;;0.45;0.45;;;8.80;99.90;;;;;;4955488;28;20617;-70
2021/11/27 10:37:51;;;;;;;0.45;0.40;;;8.80;99.90;;;;;;4954759;28;20173;-70
2021/11/27 10:40:30;;;;;;;0.80;0.80;;;9.00;99.90;;;;;;4955378;28;20223;-71
2021/11/27 10:42:59;;;;;;;0.60;0.50;;;9.50;99.90;;;;;;4954000;28;20202;-69
2021/11/27 10:45:35;;;;;;;0.50;0.50;;;10.00;99.90;;;;;;4955286;28;20216;-69
2021/11/27 10:48:10;;;;;;;1.23;0.77;;;10.30;99.90;;;;;;4954882;28;20176;-70
2021/11/27 10:50:42;;;;;;;0.80;0.80;;;10.30;99.90;;;;;;4955068;28;20420;-69
2021/11/27 10:53:13;;;;;;;1.90;0.75;;;10.20;99.90;;;;;;4954484;28;20200;-68
2021/11/27 10:55:40;;;;;;;0.95;0.80;;;9.90;99.90;;;;;;4955209;28;20176;-69
2021/11/27 10:58:09;;;;;;;0.40;0.40;;;9.40;99.90;;;;;;4954784;28;20169;-69
2021/11/27 11:00:43;;;;;;;2.65;0.60;;;9.10;99.90;;;;;;4955284;28;20508;-68
2021/11/27 11:03:34;;;;;;;1.23;1.02;;;8.80;99.90;;;;;;4955225;28;20679;-68
2021/11/27 11:06:16;;;;;;;1.27;0.80;;;8.80;99.90;;;;;;4955354;28;20180;-70
2021/11/27 11:08:42;;;;;;;1.30;1.13;;;8.70;99.90;;;;;;4955166;28;20592;-69
2021/11/27 11:11:20;;;;;;;0.70;0.70;;;8.60;99.90;;;;;;4954895;28;20259;-69
2021/11/27 11:13:52;;;;;;;1.80;0.90;;;8.50;99.90;;;;;;4954780;28;20238;-68
2021/11/27 11:16:19;;;;;;;1.15;1.05;;;8.30;99.90;;;;;;4954666;28;20175;-70
2021/11/27 11:18:45;;;;;;;0.52;0.52;;;8.20;99.90;;;;;;4955054;29;20651;-68
2021/11/27 11:21:12;;;;;;;1.35;0.60;;;8.10;99.90;;;;;;4954842;28;20172;-70
2021/11/27 11:23:43;;;;;;;0.90;0.60;;;8.00;99.90;;;;;;4953292;29;20197;-68
2021/11/27 11:26:12;;;;;;;0.63;0.40;;;7.90;99.90;;;;;;4977254;28;20179;-69
2021/11/27 11:28:39;;;;;;;1.25;1.15;;;7.80;99.90;;;;;;4993336;28;20170;-69
2021/11/27 11:31:13;;;;;;;0.47;0.47;;;7.70;99.90;;;;;;4993646;28;20208;-69
2021/11/27 11:33:41;;;;;;;0.73;0.73;;;7.60;99.90;;;;;;4993168;28;20654;-71
2021/11/27 11:36:11;;;;;;;1.25;0.50;;;7.50;99.90;;;;;;4993285;28;20175;-70
2021/11/27 11:38:39;;;;;;;0.50;0.50;;;7.40;99.90;;;;;;4993071;28;20174;-70
2021/11/27 11:41:05;;;;;;;1.55;1.30;;;7.40;99.90;;;;;;4993339;28;20182;-70
2021/11/27 11:43:31;;;;;;;1.67;1.47;;;7.40;99.90;;;;;;4993309;28;20186;-69
2021/11/27 11:45:56;;;;;;;0.60;0.60;;;7.30;99.90;;;;;;4993659;28;20570;-67
2021/11/27 11:48:28;;;;;;;0.40;0.40;;;7.30;99.90;;;;;;4993108;28;20175;-69
2021/11/27 11:51:01;;;;;;;0.65;0.65;;;7.40;99.90;;;;;;4993513;28;20229;-69
2021/11/27 11:53:32;;;;;;;0.70;0.70;;;7.40;99.90;;;;;;4993375;28;20546;-70
2021/11/27 11:56:00;;;;;;;0.95;0.95;;;7.40;99.90;;;;;;4993552;28;20171;-71
2021/11/27 11:58:34;;;;;;;0.73;0.73;;;7.40;99.90;;;;;;4993214;28;20624;-70
2021/11/27 12:01:03;;;;;;;2.25;0.60;;;7.50;99.90;;;;;;4992089;28;20179;-69
2021/11/27 12:03:39;;;;;;;0.50;0.50;;;7.50;99.90;;;;;;4993176;28;20202;-68
2021/11/27 12:06:10;;;;;;;0.70;0.65;;;7.50;99.90;;;;;;4996548;28;20175;-70
2021/11/27 12:08:48;;;;;;;3.03;1.20;;;7.50;99.90;;;;;;4996554;28;20514;-71
2021/11/27 12:11:41;;;;;;;1.63;1.25;;;7.70;99.90;;;;;;4996667;28;20182;-70
2021/11/27 12:14:22;;;;;;;5.50;4.35;;;7.70;99.90;;;;;;4996718;28;20550;-69
2021/11/27 12:17:19;;;;;;;0.60;0.50;;;7.50;99.90;;;;;;4994592;28;20420;-68
2021/11/27 12:19:48;;;;;;;1.08;0.63;;;7.20;99.90;;;;;;4996383;28;20590;-64
2021/11/27 12:22:23;;;;;;;0.95;0.82;;;6.80;99.90;;;;;;4996328;28;20629;-64
2021/11/27 12:25:05;;;;;;;0.35;0.35;;;6.60;99.90;;;;;;4994387;28;20236;-64
2021/11/27 12:27:31;;;;;;;0.57;0.57;;;6.40;99.90;;;;;;4976509;28;20524;-66
2021/11/27 12:30:09;;;;;;;0.63;0.63;;;6.20;99.90;;;;;;4975669;28;20259;-66
2021/11/27 12:32:40;;;;;;;0.57;0.50;;;6.10;99.90;;;;;;4977194;28;20626;-67
2021/11/27 12:35:35;;;;;;;0.60;0.60;;;6.00;99.90;;;;;;4976939;28;20175;-64
2021/11/27 12:38:06;;;;;;;0.55;0.55;;;5.90;99.90;;;;;;4962865;28;20190;-67
2021/11/27 12:40:38;;;;;;;1.25;0.60;;;5.90;99.90;;;;;;4976671;28;20230;-66
2021/11/27 12:43:17;;;;;;;0.43;0.43;;;5.90;99.90;;;;;;4976824;28;20281;-66
2021/11/27 12:45:52;;;;;;;0.30;0.30;;;5.90;99.90;;;;;;4977029;28;20182;-65
2021/11/27 12:48:34;;;;;;;0.57;0.40;;;5.90;99.90;;;;;;4976051;28;20172;-66
2021/11/27 12:51:19;;;;;;;0.40;0.30;;;5.80;99.90;;;;;;4976676;28;20167;-68
2021/11/27 12:53:59;;;;;;;0.60;0.60;;;5.80;99.90;;;;;;4976385;28;20205;-68
2021/11/27 12:56:54;;;;;;;0.60;0.60;;;5.70;99.90;;;;;;4976127;28;20170;-66
2021/11/27 12:59:22;;;;;;;0.30;0.30;;;5.80;99.90;;;;;;4976145;28;20176;-68
2021/11/27 13:01:52;;;;;;;0.50;0.50;;;5.80;99.90;;;;;;4976298;28;20571;-67
2021/11/27 13:04:23;;;;;;;0.80;0.70;;;5.80;99.90;;;;;;4976176;28;20230;-74